Time;durP1;ratioP1;P1;durP2;ratioP2;P2;SDS_P1;SDS_P2;PMS_P1;PMS_P2;Temp;Humidity;BMP_temperature;BMP_pressure;BME280_temperature;BME280_humidity;BME280_pressure;Samples;Min_cycle;Max_cycle;Signal;HPM_P1;HPM_P2
2021/07/04 00:00:31;;;;;;;12.65;10.72;;;;;;;16.62;84.10;99343.36;1736634;82;20924;-70
2021/07/04 00:03:02;;;;;;;11.73;10.03;;;;;;;16.64;84.16;99336.17;1736515;82;21058;-70
2021/07/04 00:05:39;;;;;;;13.18;10.08;;;;;;;16.65;84.30;99337.84;1731065;81;21035;-69
2021/07/04 00:08:22;;;;;;;;;;;;;;;16.65;84.22;99339.64;1732286;82;20944;-69
2021/07/04 00:11:04;;;;;;;9.83;8.80;;;;;;;16.66;84.37;99342.14;1730046;82;20175;-70
2021/07/04 00:13:32;;;;;;;12.60;9.63;;;;;;;16.65;84.72;99337.84;1732005;82;21020;-70
2021/07/04 00:16:00;;;;;;;10.20;8.90;;;;;;;16.64;84.46;99337.49;1733502;82;20995;-69
2021/07/04 00:18:30;;;;;;;10.85;9.65;;;;;;;16.67;84.43;99333.30;1734792;82;21102;-70
2021/07/04 00:20:59;;;;;;;13.35;9.08;;;;;;;16.69;84.44;99341.93;1708124;82;20998;-70
2021/07/04 00:23:26;;;;;;;10.20;9.03;;;;;;;16.72;84.42;99336.41;1729651;82;21006;-70
2021/07/04 00:25:54;;;;;;;13.38;9.20;;;;;;;16.72;84.45;99344.32;1734373;82;21018;-70
2021/07/04 00:28:23;;;;;;;10.58;8.43;;;;;;;16.72;84.47;99344.32;1677243;82;21003;-70
2021/07/04 00:30:54;;;;;;;12.10;8.60;;;;;;;16.74;84.51;99342.38;1724465;82;21279;-69
2021/07/04 00:33:20;;;;;;;9.20;8.13;;;;;;;16.77;84.50;99337.37;1721996;82;20993;-69
2021/07/04 00:35:48;;;;;;;12.70;9.93;;;;;;;16.80;84.59;99334.98;1725835;82;21045;-69
2021/07/04 00:38:14;;;;;;;10.55;8.10;;;;;;;16.83;84.55;99329.47;1722096;82;21034;-70
2021/07/04 00:40:43;;;;;;;9.85;8.85;;;;;;;16.85;84.51;99328.39;1727159;82;21039;-69
2021/07/04 00:43:10;;;;;;;12.90;9.48;;;;;;;16.83;84.48;99326.83;1723253;81;21088;-69
2021/07/04 00:45:37;;;;;;;;;;;;;;;16.83;84.68;99328.98;1730193;82;20976;-69
2021/07/04 00:48:04;;;;;;;12.00;8.95;;;;;;;16.80;84.66;99324.44;1698213;82;25003;-69
2021/07/04 00:50:31;;;;;;;;;;;;;;;16.80;84.68;99329.71;1729433;81;21034;-69
2021/07/04 00:53:01;;;;;;;10.25;8.65;;;;;;;16.81;84.81;99329.60;1726188;82;20171;-69
2021/07/04 00:55:28;;;;;;;11.55;9.08;;;;;;;16.83;84.70;99328.15;1723900;82;21085;-70
2021/07/04 00:57:55;;;;;;;11.73;9.40;;;;;;;16.84;84.70;99334.62;1723523;82;21049;-70
2021/07/04 01:00:27;;;;;;;9.58;8.15;;;;;;;16.87;84.71;99330.91;1724075;82;21521;-70
2021/07/04 01:02:55;;;;;;;10.60;9.45;;;;;;;16.88;84.74;99337.37;1726669;82;21521;-70
2021/07/04 01:05:28;;;;;;;10.53;8.95;;;;;;;16.85;84.92;99331.51;1722923;82;20952;-70
2021/07/04 01:07:56;;;;;;;12.07;9.30;;;;;;;16.84;84.78;99327.20;1726831;81;21038;-69
2021/07/04 01:10:27;;;;;;;10.48;9.38;;;;;;;16.82;84.82;99326.00;1664709;82;20958;-69
2021/07/04 01:12:57;;;;;;;10.08;9.00;;;;;;;16.82;84.83;99326.48;1700925;82;21406;-70
2021/07/04 01:15:26;;;;;;;11.12;9.05;;;;;;;16.81;84.81;99332.73;1725789;81;21200;-70
2021/07/04 01:17:57;;;;;;;9.80;8.50;;;;;;;16.80;84.94;99333.18;1726076;82;21029;-70
2021/07/04 01:20:27;;;;;;;10.75;9.15;;;;;;;16.77;85.03;99325.03;1699586;82;21873;-69
2021/07/04 01:23:09;;;;;;;10.25;9.25;;;;;;;16.75;85.24;99326.11;1723590;82;21076;-70
2021/07/04 01:25:44;;;;;;;9.95;8.75;;;;;;;16.73;85.06;99321.42;1723502;82;21044;-69
2021/07/04 01:28:12;;;;;;;9.98;8.83;;;;;;;16.72;85.08;99325.88;1736758;81;21003;-69
2021/07/04 01:30:42;;;;;;;10.35;8.73;;;;;;;16.70;85.16;99320.36;1734186;81;21510;-69
2021/07/04 01:33:09;;;;;;;9.68;8.70;;;;;;;16.67;85.20;99325.39;1689179;81;21065;-69
2021/07/04 01:35:36;;;;;;;10.40;9.05;;;;;;;16.65;85.21;99315.92;1709249;81;21022;-69
2021/07/04 01:38:03;;;;;;;11.12;8.70;;;;;;;16.65;85.20;99318.07;1743048;81;21685;-69
2021/07/04 01:40:31;;;;;;;9.50;8.53;;;;;;;16.65;85.21;99316.75;1740145;81;21478;-69
2021/07/04 01:42:58;;;;;;;10.25;8.13;;;;;;;16.64;85.27;99315.09;1741607;81;21729;-69
2021/07/04 01:45:25;;;;;;;10.82;8.65;;;;;;;16.62;85.20;99315.68;1744192;81;21329;-69
2021/07/04 01:47:54;;;;;;;10.60;9.50;;;;;;;16.61;85.22;99306.11;1732279;81;20946;-69
2021/07/04 01:50:28;;;;;;;13.15;9.73;;;;;;;16.61;85.33;99317.97;1737012;81;21074;-69
2021/07/04 01:52:55;;;;;;;10.35;9.20;;;;;;;16.60;85.30;99314.95;1745574;81;21035;-69
2021/07/04 01:55:22;;;;;;;11.90;9.90;;;;;;;16.60;85.42;99318.91;1735719;81;20982;-69
2021/07/04 01:57:50;;;;;;;20.75;9.13;;;;;;;16.58;85.36;99312.94;1716069;81;26756;-69
2021/07/04 02:00:20;;;;;;;;;;;;;;;16.61;85.44;99315.33;1739867;81;20956;-69
2021/07/04 02:02:50;;;;;;;9.65;8.60;;;;;;;16.59;85.51;99318.56;1739358;81;20189;-69
2021/07/04 02:05:17;;;;;;;10.78;8.98;;;;;;;16.58;85.50;99315.58;1739211;81;21026;-69
2021/07/04 02:07:43;;;;;;;11.97;9.40;;;;;;;16.60;85.50;99321.55;1734285;81;21043;-69
2021/07/04 02:10:18;;;;;;;10.67;9.43;;;;;;;16.61;85.54;99321.92;1745717;81;22003;-69
2021/07/04 02:12:45;;;;;;;12.35;9.80;;;;;;;16.61;85.53;99312.70;1743798;81;21241;-69
2021/07/04 02:15:22;;;;;;;11.10;9.85;;;;;;;16.61;85.59;99315.33;1737733;81;26579;-69
2021/07/04 02:17:50;;;;;;;11.97;10.40;;;;;;;16.61;85.59;99315.33;1740303;81;20994;-70
2021/07/04 02:20:35;;;;;;;;;;;;;;;16.62;85.67;99314.36;1739449;81;21549;-70
2021/07/04 02:23:06;;;;;;;11.33;10.13;;;;;;;16.62;85.84;99315.68;1738004;81;21079;-70
2021/07/04 02:25:35;;;;;;;12.95;9.85;;;;;;;16.59;85.80;99311.14;1742870;81;20958;-69
2021/07/04 02:28:04;;;;;;;11.57;10.23;;;;;;;16.57;85.95;99317.84;1729222;81;20979;-70
2021/07/04 02:30:33;;;;;;;11.57;10.45;;;;;;;16.57;85.98;99313.88;1722866;82;21019;-70
2021/07/04 02:33:02;;;;;;;10.58;9.45;;;;;;;16.56;86.02;99315.68;1720427;81;20967;-70
2021/07/04 02:35:30;;;;;;;10.78;9.58;;;;;;;16.55;86.09;99310.06;1720838;82;21906;-70
2021/07/04 02:37:57;;;;;;;16.42;9.38;;;;;;;16.56;86.61;99309.58;1720982;81;20984;-69
2021/07/04 02:40:23;;;;;;;;;;;;;;;16.55;86.05;99315.79;1724509;82;20947;-70
2021/07/04 02:42:50;;;;;;;10.10;9.13;;;;;;;16.57;86.14;99319.16;1726501;82;20144;-70
2021/07/04 02:45:18;;;;;;;9.98;8.98;;;;;;;16.59;86.11;99318.56;1722036;81;21880;-69
2021/07/04 02:47:45;;;;;;;;;;;;;;;16.60;86.12;99324.18;1724795;82;21069;-70
2021/07/04 02:50:13;;;;;;;11.30;9.75;;;;;;;16.61;86.16;99320.61;1722371;82;20187;-70
2021/07/04 02:52:40;;;;;;;11.10;9.60;;;;;;;16.62;86.12;99319.63;1719724;82;20991;-69
2021/07/04 02:55:09;;;;;;;11.30;9.95;;;;;;;16.65;86.25;99322.02;1721122;82;20923;-70
2021/07/04 02:57:36;;;;;;;13.00;8.63;;;;;;;16.65;86.27;99320.70;1761795;80;20944;-70
2021/07/04 03:00:07;;;;;;;10.30;8.43;;;;;;;16.61;86.19;99325.88;1755550;80;21078;-69
2021/07/04 03:02:34;;;;;;;11.70;8.45;;;;;;;16.59;86.34;99317.24;1726179;81;21600;-69
2021/07/04 03:05:01;;;;;;;9.53;8.50;;;;;;;16.60;86.29;99323.34;1728193;81;21630;-69
2021/07/04 03:07:28;;;;;;;9.68;8.48;;;;;;;16.61;86.30;99325.88;1732541;81;21084;-69
2021/07/04 03:09:55;;;;;;;11.43;8.80;;;;;;;16.66;86.34;99325.01;1747069;81;20994;-69
2021/07/04 03:12:21;;;;;;;9.13;8.33;;;;;;;16.77;86.39;99327.67;1722889;81;21877;-69
2021/07/04 03:14:49;;;;;;;10.55;8.80;;;;;;;16.82;86.24;99330.44;1721107;82;20928;-69
2021/07/04 03:17:16;;;;;;;11.12;8.58;;;;;;;16.81;86.12;99334.05;1755480;80;21216;-69
2021/07/04 03:19:43;;;;;;;10.40;9.28;;;;;;;16.86;86.23;99333.17;1722287;82;21043;-69
2021/07/04 03:22:09;;;;;;;10.98;9.63;;;;;;;16.89;86.08;99329.84;1702243;82;21008;-69
2021/07/04 03:24:39;;;;;;;9.83;8.83;;;;;;;16.95;86.24;99331.14;1720491;82;21069;-69
2021/07/04 03:27:06;;;;;;;9.93;8.90;;;;;;;16.99;86.15;99334.71;1701397;82;22209;-69
2021/07/04 03:29:33;;;;;;;11.15;9.10;;;;;;;17.03;86.05;99339.28;1731038;82;21626;-69
2021/07/04 03:32:00;;;;;;;8.03;7.15;;;;;;;17.10;86.05;99340.45;1703042;82;21571;-69
2021/07/04 03:34:27;;;;;;;9.25;8.35;;;;;;;17.18;86.06;99343.80;1736317;81;20990;-69
2021/07/04 03:36:54;;;;;;;9.03;8.15;;;;;;;17.21;85.91;99347.02;1706855;82;21271;-69
2021/07/04 03:39:21;;;;;;;8.15;7.35;;;;;;;17.21;85.64;99344.38;1701936;82;21513;-69
2021/07/04 03:41:48;;;;;;;8.65;7.70;;;;;;;17.21;85.67;99349.66;1727073;82;21030;-69
2021/07/04 03:44:15;;;;;;;7.67;6.97;;;;;;;17.24;85.80;99348.58;1734407;82;21185;-69
2021/07/04 03:46:42;;;;;;;10.18;8.13;;;;;;;17.30;85.83;99343.28;1733262;82;21782;-69
2021/07/04 03:49:09;;;;;;;9.63;8.43;;;;;;;17.38;85.93;99343.50;1736518;82;21810;-69
2021/07/04 03:51:36;;;;;;;16.17;9.33;;;;;;;17.48;85.82;99348.88;1704550;82;20964;-69
2021/07/04 03:54:02;;;;;;;9.63;8.63;;;;;;;17.52;85.73;99349.80;1732146;81;21058;-69
2021/07/04 03:56:29;;;;;;;13.75;8.23;;;;;;;17.52;85.36;99349.80;1730775;82;20930;-69
2021/07/04 03:58:57;;;;;;;9.58;7.50;;;;;;;17.46;85.38;99348.99;1727189;82;21066;-69
2021/07/04 04:01:24;;;;;;;8.00;7.05;;;;;;;17.43;85.24;99350.56;1730420;82;21049;-69
2021/07/04 04:03:51;;;;;;;8.48;7.67;;;;;;;17.49;85.50;99340.81;1731448;82;21493;-69
2021/07/04 04:06:18;;;;;;;8.45;7.60;;;;;;;17.50;85.22;99345.13;1733290;82;21624;-69
2021/07/04 04:08:46;;;;;;;8.85;7.95;;;;;;;17.48;85.23;99345.75;1737331;82;21069;-69
2021/07/04 04:11:14;;;;;;;9.93;7.67;;;;;;;17.50;85.25;99343.80;1734157;82;20985;-69
2021/07/04 04:13:40;;;;;;;10.85;9.03;;;;;;;17.54;85.34;99343.92;1734667;82;21116;-69
2021/07/04 04:16:07;;;;;;;11.97;9.75;;;;;;;17.58;85.09;99349.30;1732623;82;21030;-69
2021/07/04 04:18:36;;;;;;;;;;;;;;;17.55;85.13;99352.19;1735801;82;21069;-69
2021/07/04 04:21:05;;;;;;;10.85;9.50;;;;;;;17.51;85.13;99349.45;1726917;82;20123;-69
2021/07/04 04:23:32;;;;;;;11.88;9.00;;;;;;;17.51;85.20;99352.09;1701929;82;20989;-69
2021/07/04 04:25:59;;;;;;;;;;;;;;;17.50;85.18;99355.68;1737876;82;21844;-69
2021/07/04 04:28:26;;;;;;;11.38;8.48;;;;;;;17.52;85.22;99351.13;1739084;81;20124;-69
2021/07/04 04:31:14;;;;;;;9.78;8.78;;;;;;;17.61;85.27;99360.92;1735198;81;21663;-69
2021/07/04 04:33:41;;;;;;;9.70;7.72;;;;;;;;;;1690231;84;21026;-70
2021/07/04 04:36:08;;;;;;;9.80;8.28;;;;;;;17.77;85.18;99353.06;1681348;84;21236;-69
2021/07/04 04:38:35;;;;;;;10.28;7.80;;;;;;;17.83;85.25;99357.38;1683614;84;21004;-69
2021/07/04 04:41:02;;;;;;;8.75;6.83;;;;;;;17.89;84.91;99362.14;1681391;84;21085;-69
2021/07/04 04:43:28;;;;;;;9.23;7.97;;;;;;;17.98;84.96;99368.48;1658450;85;21055;-69
2021/07/04 04:45:55;;;;;;;10.75;7.75;;;;;;;17.95;84.34;99372.68;1688446;84;21456;-69
2021/07/04 04:48:22;;;;;;;;;;;;;;;17.95;84.69;99366.56;1689372;84;21694;-69
2021/07/04 04:50:48;;;;;;;7.92;7.12;;;;;;;18.04;84.85;99361.36;1684610;84;21955;-69
2021/07/04 04:53:15;;;;;;;8.23;7.30;;;;;;;18.15;84.61;99358.28;1682852;84;21049;-69
2021/07/04 04:55:42;;;;;;;11.57;7.15;;;;;;;18.20;84.56;99355.60;1684212;84;21049;-69
2021/07/04 04:58:09;;;;;;;8.85;7.60;;;;;;;18.29;84.65;99354.84;1686318;84;21017;-70
2021/07/04 05:00:35;;;;;;;7.78;6.97;;;;;;;18.74;85.26;99352.38;1683620;84;21620;-69
2021/07/04 05:03:08;;;;;;;7.67;6.87;;;;;;;19.43;84.64;99352.37;1664252;84;22371;-70
2021/07/04 05:05:35;;;;;;;9.05;6.97;;;;;;;19.78;84.06;99356.33;1677034;84;21018;-69
2021/07/04 05:08:03;;;;;;;9.00;6.87;;;;;;;19.82;82.99;99355.06;1687566;84;21017;-69
2021/07/04 05:10:30;;;;;;;8.35;6.92;;;;;;;19.92;82.98;99359.53;1662722;85;22253;-70
2021/07/04 05:12:57;;;;;;;;;;;;;;;19.97;82.51;99359.92;1666047;85;21124;-70
2021/07/04 05:15:23;;;;;;;7.58;6.78;;;;;;;20.02;82.54;99355.04;1683097;84;21850;-70
2021/07/04 05:17:50;;;;;;;7.08;6.35;;;;;;;20.17;82.18;99347.50;1684584;84;21065;-70
2021/07/04 05:20:17;;;;;;;9.63;6.17;;;;;;;20.06;81.57;99353.80;1663122;84;21065;-70
2021/07/04 05:22:44;;;;;;;;;;;;;;;20.38;81.82;99355.25;1687819;84;20967;-70
2021/07/04 05:25:12;;;;;;;10.82;7.00;;;;;;;20.37;79.68;99357.56;1688764;84;20108;-70
2021/07/04 05:27:39;;;;;;;7.70;6.90;;;;;;;20.37;80.97;99358.89;1688817;84;21234;-70
2021/07/04 05:30:06;;;;;;;;;;;;;;;20.90;81.68;99352.49;1667186;84;21010;-70
2021/07/04 05:32:34;;;;;;;8.23;6.25;;;;;;;21.34;79.98;99353.13;1678994;83;20205;-70
2021/07/04 05:35:01;;;;;;;7.35;6.65;;;;;;;21.47;78.25;99356.28;1670216;83;20993;-70
2021/07/04 05:37:28;;;;;;;7.60;5.67;;;;;;;21.66;78.58;99353.48;1697587;83;21092;-70
2021/07/04 05:39:58;;;;;;;10.58;5.90;;;;;;;22.03;78.90;99357.76;1696605;83;21129;-70
2021/07/04 05:42:24;;;;;;;7.53;6.20;;;;;;;22.23;77.93;99354.94;1642315;85;21037;-70
2021/07/04 05:44:51;;;;;;;6.95;6.10;;;;;;;22.51;79.73;99353.78;1661908;84;21509;-70
2021/07/04 05:47:18;;;;;;;6.60;5.85;;;;;;;23.01;79.67;99350.37;1661354;85;21037;-70
2021/07/04 05:49:45;;;;;;;7.80;6.90;;;;;;;23.38;78.83;99347.80;1657804;85;21049;-70
2021/07/04 05:52:12;;;;;;;10.15;6.53;;;;;;;23.56;78.65;99350.84;1694963;83;22234;-70
2021/07/04 05:54:39;;;;;;;6.70;6.03;;;;;;;23.66;78.46;99354.16;1696348;83;21045;-70
2021/07/04 05:57:06;;;;;;;6.15;5.53;;;;;;;23.61;77.87;99348.48;1665529;84;20981;-70
2021/07/04 05:59:34;;;;;;;6.62;5.53;;;;;;;23.37;76.06;99350.64;1663630;85;21022;-70
2021/07/04 06:02:02;;;;;;;11.10;10.03;;;;;;;23.06;76.81;99345.08;1639644;84;21614;-70
2021/07/04 06:04:30;;;;;;;8.88;6.55;;;;;;;22.88;77.14;99349.98;1658990;84;21076;-70
2021/07/04 06:06:57;;;;;;;7.87;5.78;;;;;;;22.97;77.39;99343.72;1635373;85;21043;-70
2021/07/04 06:09:23;;;;;;;10.05;6.72;;;;;;;23.08;77.24;99349.72;1665641;85;21025;-70
2021/07/04 06:11:51;;;;;;;6.97;6.15;;;;;;;22.95;76.70;99353.69;1666596;85;20992;-70
2021/07/04 06:14:18;;;;;;;7.40;6.40;;;;;;;23.21;77.29;99358.09;1631269;86;21113;-70
2021/07/04 06:16:45;;;;;;;6.60;6.00;;;;;;;23.49;77.03;99353.81;1671369;84;21940;-70
2021/07/04 06:19:11;;;;;;;;;;;;;;;23.70;76.40;99358.18;1675780;84;20964;-70
2021/07/04 06:21:38;;;;;;;;;;;;;;;23.80;75.87;99360.70;1659080;85;20495;-70
2021/07/04 06:24:06;;;;;;;10.08;6.15;;;;;;;23.79;75.38;99358.54;1668896;85;20296;-71
2021/07/04 06:26:32;;;;;;;6.87;6.22;;;;;;;23.80;75.70;99356.20;1662275;85;20981;-70
2021/07/04 06:28:59;;;;;;;6.83;6.12;;;;;;;23.86;75.37;99358.22;1651100;85;21057;-70
2021/07/04 06:31:28;;;;;;;6.75;5.83;;;;;;;23.80;75.31;99354.86;1669458;84;20951;-71
2021/07/04 06:33:58;;;;;;;6.87;6.22;;;;;;;23.77;75.02;99352.53;1670090;84;20931;-70
2021/07/04 06:36:26;;;;;;;7.87;6.22;;;;;;;23.59;74.65;99353.17;1670095;84;21017;-70
2021/07/04 06:38:55;;;;;;;9.35;6.25;;;;;;;23.52;74.75;99349.48;1671498;84;21121;-70
2021/07/04 06:41:22;;;;;;;9.28;5.97;;;;;;;23.45;74.63;99348.82;1670563;84;21776;-70
2021/07/04 06:43:48;;;;;;;;;;;;;;;23.45;74.49;99344.82;1677687;84;21018;-70
2021/07/04 06:46:16;;;;;;;7.25;6.62;;;;;;;23.42;74.05;99343.82;1657699;84;20118;-70
2021/07/04 06:48:42;;;;;;;8.28;7.30;;;;;;;23.39;74.12;99346.81;1670591;84;21067;-70
2021/07/04 06:51:11;;;;;;;8.70;7.35;;;;;;;23.41;73.95;99348.83;1687121;84;21026;-70
2021/07/04 06:53:38;;;;;;;11.48;7.33;;;;;;;23.52;73.95;99349.48;1681712;84;21048;-71
2021/07/04 06:56:05;;;;;;;9.40;7.53;;;;;;;23.60;73.71;99342.33;1677529;84;21555;-68
2021/07/04 06:58:33;;;;;;;9.18;7.20;;;;;;;23.66;73.45;99346.16;1679424;84;21056;-69
2021/07/04 07:00:59;;;;;;;9.00;7.90;;;;;;;23.73;73.30;99347.22;1650819;84;20994;-69
2021/07/04 07:03:26;;;;;;;9.10;8.15;;;;;;;23.97;73.32;99349.53;1684185;84;20976;-69
2021/07/04 07:05:53;;;;;;;7.10;6.40;;;;;;;24.48;73.49;99343.50;1651759;84;21995;-67
2021/07/04 07:08:19;;;;;;;7.47;5.65;;;;;;;25.08;73.02;99344.23;1674200;84;28763;-66
2021/07/04 07:10:46;;;;;;;10.25;6.45;;;;;;;25.45;71.83;99342.70;1670255;84;20944;-66
2021/07/04 07:13:12;;;;;;;6.28;5.67;;;;;;;25.57;71.52;99340.45;1671997;84;21048;-66
2021/07/04 07:15:40;;;;;;;8.58;5.97;;;;;;;25.33;69.96;99348.14;1669926;84;23650;-66
2021/07/04 07:18:06;;;;;;;7.45;6.17;;;;;;;25.11;70.19;99347.89;1674179;84;21091;-66
2021/07/04 07:20:35;;;;;;;6.92;5.67;;;;;;;25.22;71.14;99354.72;1670551;84;20967;-66
2021/07/04 07:23:01;;;;;;;7.47;5.70;;;;;;;25.36;70.34;99355.80;1650547;84;21064;-68
2021/07/04 07:25:28;;;;;;;6.80;5.75;;;;;;;25.61;70.52;99359.97;1675671;84;21039;-66
2021/07/04 07:27:54;;;;;;;5.85;5.35;;;;;;;25.86;69.82;99351.80;1677614;84;21011;-66
2021/07/04 07:30:22;;;;;;;;;;;;;;;25.76;68.71;99349.32;1672545;84;21125;-67
2021/07/04 07:32:49;;;;;;;9.13;6.00;;;;;;;25.59;68.65;99347.79;1669798;84;20381;-66
2021/07/04 07:35:18;;;;;;;7.35;5.47;;;;;;;25.48;68.92;99357.56;1689037;84;21002;-69
2021/07/04 07:37:45;;;;;;;6.00;5.33;;;;;;;25.33;67.63;99354.31;1682258;84;20975;-66
2021/07/04 07:40:14;;;;;;;7.90;6.08;;;;;;;25.23;68.55;99355.89;1682720;84;21014;-65
2021/07/04 07:42:40;;;;;;;8.38;4.90;;;;;;;25.55;68.69;99351.33;1681708;84;21067;-66
2021/07/04 07:45:07;;;;;;;;;;;;;;;25.18;65.27;99351.57;1686908;84;21017;-66
2021/07/04 07:47:36;;;;;;;6.47;5.78;;;;;;;24.48;64.92;99350.17;1651855;85;20132;-65
2021/07/04 07:50:06;;;;;;;7.92;5.75;;;;;;;24.18;67.43;99343.19;1686651;84;21042;-65
2021/07/04 07:52:32;;;;;;;8.23;6.00;;;;;;;24.69;68.18;99351.75;1679586;84;21048;-66
2021/07/04 07:54:59;;;;;;;7.65;5.47;;;;;;;24.84;67.27;99351.02;1684271;84;22027;-66
2021/07/04 07:57:25;;;;;;;;;;;;;;;24.87;67.44;99350.67;1677687;84;20939;-66
2021/07/04 07:59:52;;;;;;;;;;;;;;;25.13;66.71;99355.23;1675912;84;20156;-65
2021/07/04 08:02:18;;;;;;;7.15;5.90;;;;;;;25.38;66.27;99353.80;1679939;84;20158;-66
2021/07/04 08:04:45;;;;;;;7.15;5.80;;;;;;;25.25;65.64;99350.86;1679217;84;21122;-66
2021/07/04 08:07:11;;;;;;;7.37;5.45;;;;;;;25.33;66.49;99357.50;1655330;85;27212;-66
2021/07/04 08:09:38;;;;;;;5.97;5.10;;;;;;;25.55;64.98;99355.34;1689124;84;20923;-66
2021/07/04 08:12:06;;;;;;;5.72;5.12;;;;;;;25.41;65.97;99356.11;1690130;84;20946;-66
2021/07/04 08:14:33;;;;;;;7.20;5.62;;;;;;;25.81;66.47;99356.81;1695774;84;21006;-66
2021/07/04 08:16:59;;;;;;;5.58;5.08;;;;;;;26.14;65.31;99349.38;1692027;84;20999;-66
2021/07/04 08:19:26;;;;;;;8.40;5.40;;;;;;;26.14;64.88;99345.87;1694793;84;22309;-66
2021/07/04 08:21:52;;;;;;;7.42;5.20;;;;;;;25.99;63.91;99344.00;1658556;85;24320;-67
2021/07/04 08:24:19;;;;;;;;;;;;;;;26.16;65.31;99342.48;1658656;85;20986;-66
2021/07/04 08:26:45;;;;;;;;;;;;;;;26.66;65.25;99336.95;1694456;84;20606;-67
2021/07/04 08:29:11;;;;;;;;;;;;;;;26.95;64.81;99331.58;1694587;84;20206;-66
2021/07/04 08:31:38;;;;;;;;;;;;;;;27.34;64.23;99333.08;1694422;84;21493;-66
2021/07/04 08:34:04;;;;;;;;;;;;;;;27.56;63.91;99339.77;1669466;84;20455;-67
2021/07/04 08:36:32;;;;;;;12.68;5.97;;;;;;;26.98;57.16;99333.88;1659378;85;20132;-66
2021/07/04 08:39:00;;;;;;;8.70;5.00;;;;;;;25.85;59.89;99334.07;1658895;85;20974;-66
2021/07/04 08:41:26;;;;;;;7.95;5.30;;;;;;;25.19;60.08;99345.20;1650569;85;21003;-67
2021/07/04 08:43:53;;;;;;;5.92;5.33;;;;;;;24.22;58.69;99341.00;1653844;85;21311;-66
2021/07/04 08:46:20;;;;;;;6.12;5.53;;;;;;;24.00;61.13;99350.53;1640561;87;21502;-66
2021/07/04 08:48:47;;;;;;;5.15;4.62;;;;;;;24.45;63.03;99341.14;1656854;85;21018;-66
2021/07/04 08:51:14;;;;;;;8.05;5.67;;;;;;;24.86;61.60;99343.68;1630299;87;20982;-66
2021/07/04 08:53:41;;;;;;;;;;;;;;;24.81;61.70;99343.36;1629169;87;20918;-66
2021/07/04 08:56:07;;;;;;;;;;;;;;;25.14;61.11;99338.22;1655198;85;22064;-66
2021/07/04 08:58:34;;;;;;;6.97;5.35;;;;;;;25.04;59.96;99338.93;1653489;85;20103;-66
2021/07/04 09:01:18;;;;;;;11.57;5.22;;;;;;;25.08;62.02;99342.91;1630297;86;20954;-66
2021/07/04 09:03:55;;;;;;;6.45;5.03;;;;;;;25.87;62.50;99332.88;1608071;88;21089;-66
2021/07/04 09:06:42;;;;;;;6.00;5.22;;;;;;;26.64;62.02;99329.64;1653652;85;21603;-66
2021/07/04 09:09:24;;;;;;;6.20;4.92;;;;;;;27.35;61.86;99325.86;1651111;85;22293;-66
2021/07/04 09:12:02;;;;;;;5.53;5.03;;;;;;;27.82;61.52;99329.33;1632156;87;20973;-66
2021/07/04 09:14:42;;;;;;;5.00;4.55;;;;;;;28.09;61.15;99332.20;1643149;85;21044;-66
2021/07/04 09:17:13;;;;;;;7.55;5.10;;;;;;;27.84;58.82;99335.34;1646233;85;21041;-66
2021/07/04 09:19:49;;;;;;;5.65;5.08;;;;;;;26.63;58.32;99340.01;1650641;85;21029;-66
2021/07/04 09:22:16;;;;;;;5.30;4.78;;;;;;;26.26;59.84;99333.19;1624785;86;21112;-66
2021/07/04 09:24:43;;;;;;;;;;;;;;;26.23;60.05;99334.06;1652432;85;21561;-66
2021/07/04 09:27:15;;;;;;;9.25;5.40;;;;;;;26.44;60.10;99334.18;1655651;85;20469;-66
2021/07/04 09:29:51;;;;;;;5.45;4.95;;;;;;;26.64;60.30;99325.11;1652188;85;21005;-66
2021/07/04 09:32:25;;;;;;;11.12;5.30;;;;;;;26.66;59.52;99326.25;1632303;87;21207;-66
2021/07/04 09:35:10;;;;;;;5.58;4.80;;;;;;;26.55;59.81;99328.39;1681801;84;22074;-66
2021/07/04 09:37:46;;;;;;;6.90;4.90;;;;;;;26.42;58.62;99326.83;1687590;84;22198;-66
2021/07/04 09:40:25;;;;;;;6.95;4.95;;;;;;;26.04;57.00;99324.20;1660095;85;20993;-66
2021/07/04 09:43:17;;;;;;;8.05;5.55;;;;;;;25.09;56.56;99328.53;1682331;84;20979;-66
2021/07/04 09:45:54;;;;;;;7.85;5.65;;;;;;;25.08;58.85;99334.06;1688643;84;20926;-66
2021/07/04 09:48:32;;;;;;;7.90;4.78;;;;;;;25.44;58.97;99323.69;1687767;84;21145;-67
2021/07/04 09:51:08;;;;;;;6.35;5.28;;;;;;;25.92;59.33;99317.64;1689845;84;21049;-66
2021/07/04 09:53:37;;;;;;;5.97;4.80;;;;;;;26.41;59.15;99314.48;1690903;84;21411;-66
2021/07/04 09:56:23;;;;;;;7.05;5.15;;;;;;;26.66;58.73;99319.03;1692280;84;20974;-66
2021/07/04 09:58:54;;;;;;;8.58;5.35;;;;;;;26.67;57.04;99317.22;1685790;84;20990;-66
2021/07/04 10:01:45;;;;;;;6.50;5.17;;;;;;;26.27;57.72;99313.94;1691310;84;21263;-66
2021/07/04 10:04:36;;;;;;;5.70;5.05;;;;;;;26.41;58.05;99308.27;1658760;85;21014;-66
2021/07/04 10:07:03;;;;;;;7.62;5.87;;;;;;;26.56;57.95;99313.98;1684772;84;21065;-66
2021/07/04 10:09:31;;;;;;;6.22;5.15;;;;;;;26.34;56.10;99310.86;1685640;84;21002;-67
2021/07/04 10:11:58;;;;;;;5.65;4.95;;;;;;;26.02;55.30;99305.33;1656960;85;21537;-66
2021/07/04 10:14:26;;;;;;;5.65;5.15;;;;;;;25.87;57.31;99304.80;1631475;87;21481;-66
2021/07/04 10:16:54;;;;;;;9.43;5.53;;;;;;;26.39;57.89;99304.45;1684924;84;21098;-66
2021/07/04 10:19:24;;;;;;;6.83;5.15;;;;;;;26.86;57.80;99293.02;1687122;84;20919;-66
2021/07/04 10:22:03;;;;;;;6.45;4.97;;;;;;;27.12;57.28;99285.80;1687575;84;20975;-67
2021/07/04 10:24:30;;;;;;;5.60;5.03;;;;;;;27.31;56.56;99286.55;1686599;84;21010;-67
2021/07/04 10:27:01;;;;;;;6.62;5.80;;;;;;;27.17;55.60;99283.42;1687296;84;21038;-66
2021/07/04 10:29:30;;;;;;;5.42;4.80;;;;;;;26.67;55.09;99279.21;1687903;84;21540;-66
2021/07/04 10:32:09;;;;;;;8.83;4.92;;;;;;;26.62;55.96;99279.45;1682959;84;21045;-66
2021/07/04 10:34:46;;;;;;;6.72;6.12;;;;;;;26.41;55.52;99282.36;1682251;83;21045;-66
2021/07/04 10:37:15;;;;;;;5.90;4.83;;;;;;;26.77;56.47;99278.91;1680811;84;21057;-66
2021/07/04 10:39:42;;;;;;;5.90;4.75;;;;;;;27.13;55.96;99276.73;1685841;84;21086;-66
2021/07/04 10:42:11;;;;;;;7.55;4.67;;;;;;;27.32;56.13;99274.80;1682047;84;20998;-66
2021/07/04 10:44:50;;;;;;;8.70;5.30;;;;;;;27.70;56.23;99265.62;1683062;84;21099;-66
2021/07/04 10:47:36;;;;;;;5.50;4.47;;;;;;;27.97;55.50;99266.69;1686404;84;21050;-65
2021/07/04 10:50:11;;;;;;;;;;;;;;;28.06;55.62;99261.48;1687017;84;21509;-66
2021/07/04 10:52:41;;;;;;;9.63;5.12;;;;;;;28.27;55.41;99260.59;1687386;84;21105;-66
2021/07/04 10:55:14;;;;;;;8.75;5.72;;;;;;;28.43;55.50;99262.13;1687271;84;20993;-66
2021/07/04 10:57:55;;;;;;;5.75;5.22;;;;;;;28.65;54.90;99261.02;1689317;84;20947;-66
2021/07/04 11:00:34;;;;;;;5.42;4.92;;;;;;;28.54;54.30;99254.87;1686997;84;20994;-66
2021/07/04 11:03:07;;;;;;;8.18;4.55;;;;;;;28.28;54.07;99254.18;1686050;84;21505;-67
2021/07/04 11:05:40;;;;;;;6.15;5.50;;;;;;;28.02;52.28;99252.18;1681323;84;21276;-67
2021/07/04 11:08:21;;;;;;;6.03;5.17;;;;;;;27.68;53.22;99251.09;1684265;84;20979;-66
2021/07/04 11:11:08;;;;;;;7.58;5.42;;;;;;;27.74;53.08;99252.16;1686123;84;21010;-67
2021/07/04 11:13:42;;;;;;;5.65;5.10;;;;;;;27.66;52.69;99247.24;1660621;85;21525;-66
2021/07/04 11:16:22;;;;;;;6.78;5.55;;;;;;;27.78;53.41;99235.46;1663739;84;21018;-66
2021/07/04 11:18:56;;;;;;;8.98;5.20;;;;;;;28.21;53.53;99246.10;1664162;85;21123;-67
2021/07/04 11:21:50;;;;;;;5.75;4.92;;;;;;;28.33;53.00;99249.88;1691103;84;21125;-67
2021/07/04 11:24:21;;;;;;;6.00;4.62;;;;;;;27.98;52.43;99242.84;1689839;84;21001;-66
2021/07/04 11:27:25;;;;;;;5.50;4.85;;;;;;;27.51;52.46;99247.03;1696917;84;20986;-66
2021/07/04 11:30:26;;;;;;;5.70;5.15;;;;;;;27.17;51.66;99245.39;1694767;84;20958;-66
2021/07/04 11:36:19;;;;;;;7.60;5.30;;;;;;;26.70;52.46;99247.22;1674909;84;21030;-66
2021/07/04 11:38:56;;;;;;;7.45;5.10;;;;;;;26.70;52.21;99241.86;1673727;84;21613;-67
2021/07/04 11:41:33;;;;;;;6.40;5.20;;;;;;;26.61;51.54;99240.28;1664293;85;21035;-66
2021/07/04 11:44:12;;;;;;;7.65;4.92;;;;;;;26.71;52.53;99236.30;1669825;85;21002;-66
2021/07/04 11:46:43;;;;;;;5.37;4.72;;;;;;;27.05;52.24;99231.30;1662977;85;21109;-66
2021/07/04 11:49:13;;;;;;;5.37;4.87;;;;;;;27.38;52.93;99229.80;1658842;85;21026;-67
2021/07/04 11:51:57;;;;;;;7.10;5.83;;;;;;;27.43;51.96;99230.05;1674332;84;20933;-66
2021/07/04 11:54:34;;;;;;;6.58;5.10;;;;;;;27.48;52.33;99220.61;1675160;84;21551;-66